createdAt,value
2019-05-26T00:01:24.980Z,95160.53
2019-05-26T00:03:52.334Z,95164.97
2019-05-26T00:06:19.757Z,95164.95
2019-05-26T00:08:47.168Z,95171.13
2019-05-26T00:11:14.615Z,95171.29
2019-05-26T00:13:41.992Z,95161.55
2019-05-26T00:16:09.435Z,95171.72
2019-05-26T00:18:36.908Z,95170.14
2019-05-26T00:21:04.427Z,95169.38
2019-05-26T00:23:32.473Z,95158.00
2019-05-26T00:26:00.779Z,95170.53
2019-05-26T00:28:28.199Z,95175.05
2019-05-26T00:30:55.646Z,95185.48
2019-05-26T00:33:22.985Z,95178.33
2019-05-26T00:35:50.423Z,95174.83
2019-05-26T00:38:17.861Z,95183.37
2019-05-26T00:40:45.297Z,95174.82
2019-05-26T00:43:12.825Z,95178.25
2019-05-26T00:45:40.269Z,95178.33
2019-05-26T00:48:07.794Z,95174.73
2019-05-26T00:50:35.212Z,95169.17
2019-05-26T00:53:02.604Z,95175.64
2019-05-26T00:55:30.142Z,95173.89
2019-05-26T00:57:57.682Z,95179.13
2019-05-26T01:00:39.057Z,95175.30
2019-05-26T01:03:06.580Z,95179.52
2019-05-26T01:05:34.052Z,95184.52
2019-05-26T01:08:06.455Z,95181.70
2019-05-26T01:10:30.786Z,95190.20
2019-05-26T01:12:58.193Z,95187.83
2019-05-26T01:15:25.558Z,95184.86
2019-05-26T01:17:52.973Z,95189.41
2019-05-26T01:20:21.505Z,95195.28
2019-05-26T01:22:48.991Z,95190.97
2019-05-26T01:25:16.588Z,95191.59
2019-05-26T01:27:44.203Z,95184.98
2019-05-26T01:30:13.045Z,95192.36
2019-05-26T01:32:40.651Z,95191.92
2019-05-26T01:35:08.330Z,95193.64
2019-05-26T01:37:37.436Z,95194.17
2019-05-26T01:40:05.293Z,95193.41
2019-05-26T01:42:32.739Z,95193.39
2019-05-26T01:45:00.212Z,95185.78
2019-05-26T01:47:27.601Z,95185.98
2019-05-26T01:49:55.057Z,95176.24
2019-05-26T01:52:22.517Z,95178.30
2019-05-26T01:54:49.971Z,95181.17
2019-05-26T01:57:17.464Z,95179.64
2019-05-26T01:59:45.016Z,95179.56
2019-05-26T02:02:12.452Z,95173.90
2019-05-26T02:04:39.871Z,95182.39
2019-05-26T02:07:07.327Z,95173.81
2019-05-26T02:09:34.896Z,95173.20
2019-05-26T02:12:02.328Z,95175.17
2019-05-26T02:14:29.724Z,95170.64
2019-05-26T02:16:57.156Z,95174.41
2019-05-26T02:19:24.585Z,95166.50
2019-05-26T02:21:52.019Z,95166.97
2019-05-26T02:24:19.478Z,95171.95
2019-05-26T02:26:47.026Z,95165.03
2019-05-26T02:29:14.604Z,95172.58
2019-05-26T02:31:42.024Z,95184.20
2019-05-26T02:34:09.480Z,95181.48
2019-05-26T02:36:36.913Z,95177.88
2019-05-26T02:39:06.889Z,95176.85
2019-05-26T02:41:34.487Z,95179.70
2019-05-26T02:44:01.933Z,95174.70
2019-05-26T02:46:29.379Z,95181.03
2019-05-26T02:48:56.815Z,95186.91
2019-05-26T02:51:24.222Z,95190.81
2019-05-26T02:53:51.737Z,95191.39
2019-05-26T02:56:19.861Z,95191.71
2019-05-26T02:58:47.286Z,95189.48
2019-05-26T03:01:14.902Z,95189.80
2019-05-26T03:03:42.301Z,95185.23
2019-05-26T03:06:11.807Z,95187.19
2019-05-26T03:08:39.929Z,95181.76
2019-05-26T03:11:09.366Z,95184.30
2019-05-26T03:13:38.681Z,95181.44
2019-05-26T03:16:07.930Z,95188.86
2019-05-26T03:18:37.650Z,95186.73
2019-05-26T03:21:05.077Z,95198.17
2019-05-26T03:23:32.739Z,95193.59
2019-05-26T03:26:00.458Z,95199.53
2019-05-26T03:28:27.977Z,95192.64
2019-05-26T03:30:55.530Z,95196.53
2019-05-26T03:33:23.032Z,95197.45
2019-05-26T03:35:50.500Z,95203.77
2019-05-26T03:38:17.909Z,95201.05
2019-05-26T03:40:45.349Z,95201.12
2019-05-26T03:43:12.824Z,95205.47
2019-05-26T03:46:18.283Z,95202.77
2019-05-26T03:48:45.903Z,95198.67
2019-05-26T03:51:14.142Z,95197.27
2019-05-26T03:53:41.541Z,95193.07
2019-05-26T03:56:09.032Z,95208.98
2019-05-26T03:58:36.501Z,95209.03
2019-05-26T04:01:04.142Z,95207.59
2019-05-26T04:03:31.525Z,95204.21
2019-05-26T04:05:58.951Z,95210.20
2019-05-26T04:08:26.507Z,95215.55
2019-05-26T04:10:53.880Z,95218.59
2019-05-26T04:13:21.456Z,95213.64
2019-05-26T04:15:48.877Z,95213.75
2019-05-26T04:18:16.347Z,95218.03
2019-05-26T04:20:45.887Z,95209.97
2019-05-26T04:23:13.253Z,95222.83
2019-05-26T04:25:40.682Z,95226.50
2019-05-26T04:28:08.669Z,95214.09
2019-05-26T04:30:36.192Z,95213.87
2019-05-26T04:33:03.769Z,95216.12
2019-05-26T04:35:31.206Z,95209.86
2019-05-26T04:37:58.564Z,95214.19
2019-05-26T04:40:27.846Z,95221.41
2019-05-26T04:42:55.413Z,95223.19
2019-05-26T04:45:22.879Z,95226.92
2019-05-26T04:47:50.332Z,95222.25
2019-05-26T04:50:17.724Z,95218.50
2019-05-26T04:53:04.477Z,95216.45
2019-05-26T04:55:14.637Z,95219.56
2019-05-26T04:57:42.098Z,95221.37
2019-05-26T05:00:09.963Z,95217.51
2019-05-26T05:02:37.566Z,95219.65
2019-05-26T05:05:05.162Z,95216.07
2019-05-26T05:07:32.741Z,95219.34
2019-05-26T05:10:00.184Z,95223.72
2019-05-26T05:12:27.609Z,95220.94
2019-05-26T05:14:55.053Z,95219.54
2019-05-26T05:17:22.460Z,95225.31
2019-05-26T05:19:49.939Z,95221.84
2019-05-26T05:22:17.406Z,95224.23
2019-05-26T05:24:46.081Z,95223.54
2019-05-26T05:27:13.637Z,95225.02
2019-05-26T05:29:41.059Z,95219.45
2019-05-26T05:32:08.617Z,95221.33
2019-05-26T05:34:36.132Z,95214.70
2019-05-26T05:37:03.670Z,95218.47
2019-05-26T05:39:31.163Z,95205.38
2019-05-26T05:41:58.661Z,95219.11
2019-05-26T05:44:26.119Z,95212.11
2019-05-26T05:46:53.698Z,95214.95
2019-05-26T05:49:21.162Z,95210.47
2019-05-26T05:51:48.639Z,95210.86
2019-05-26T05:54:16.027Z,95209.36
2019-05-26T05:56:43.474Z,95213.36
2019-05-26T05:59:10.929Z,95210.86
2019-05-26T06:01:38.358Z,95214.34
2019-05-26T06:04:07.239Z,95216.57
2019-05-26T06:06:34.665Z,95220.95
2019-05-26T06:09:02.217Z,95215.11
2019-05-26T06:11:29.638Z,95222.84
2019-05-26T06:13:57.385Z,95217.52
2019-05-26T06:16:24.775Z,95218.10
2019-05-26T06:18:52.214Z,95213.06
2019-05-26T06:21:19.646Z,95216.28
2019-05-26T06:23:47.122Z,95213.91
2019-05-26T06:26:15.513Z,95216.47
2019-05-26T06:28:43.131Z,95208.72
2019-05-26T06:31:10.608Z,95218.22
2019-05-26T06:33:38.266Z,95212.08
2019-05-26T06:36:05.702Z,95219.36
2019-05-26T06:38:33.146Z,95213.29
2019-05-26T06:41:00.548Z,95206.63
2019-05-26T06:43:28.100Z,95208.02
2019-05-26T06:45:55.668Z,95210.24
2019-05-26T06:48:26.605Z,95210.48
2019-05-26T06:50:52.499Z,95216.48
2019-05-26T06:53:19.973Z,95208.86
2019-05-26T06:55:47.465Z,95210.59
2019-05-26T06:58:14.882Z,95209.46
2019-05-26T07:00:44.791Z,95213.06
2019-05-26T07:03:12.215Z,95217.24
2019-05-26T07:05:39.652Z,95218.66
2019-05-26T07:08:07.075Z,95224.95
2019-05-26T07:10:34.490Z,95224.04
2019-05-26T07:13:01.909Z,95216.13
2019-05-26T07:15:29.375Z,95229.41
2019-05-26T07:17:57.999Z,95232.39
2019-05-26T07:20:25.418Z,95230.58
2019-05-26T07:22:52.874Z,95227.84
2019-05-26T07:25:20.306Z,95224.72
2019-05-26T07:27:47.788Z,95224.63
2019-05-26T07:30:15.914Z,95216.08
2019-05-26T07:32:43.386Z,95221.82
2019-05-26T07:35:10.960Z,95215.73
2019-05-26T07:37:38.418Z,95218.48
2019-05-26T07:40:06.298Z,95218.48
2019-05-26T07:42:33.784Z,95224.52
2019-05-26T07:45:01.208Z,95216.82
2019-05-26T07:47:28.710Z,95217.02
2019-05-26T07:49:56.167Z,95217.18
2019-05-26T07:52:23.621Z,95217.29
2019-05-26T07:54:51.037Z,95213.44
2019-05-26T07:57:18.514Z,95213.44
2019-05-26T07:59:45.888Z,95222.43
2019-05-26T08:02:13.330Z,95225.32
2019-05-26T08:04:40.769Z,95229.78
2019-05-26T08:07:08.258Z,95224.50
2019-05-26T08:09:35.739Z,95224.02
2019-05-26T08:12:03.289Z,95219.34
2019-05-26T08:14:30.711Z,95220.81
2019-05-26T08:16:58.128Z,95215.23
2019-05-26T08:19:25.620Z,95215.94
2019-05-26T08:21:54.699Z,95220.90
2019-05-26T08:24:22.660Z,95215.81
2019-05-26T08:26:50.765Z,95217.93
2019-05-26T08:29:19.096Z,95228.27
2019-05-26T08:31:46.950Z,95215.42
2019-05-26T08:34:14.390Z,95216.27
2019-05-26T08:36:42.079Z,95217.74
2019-05-26T08:39:09.609Z,95215.81
2019-05-26T08:41:37.013Z,95214.98
2019-05-26T08:44:04.682Z,95206.27
2019-05-26T08:46:32.176Z,95205.00
2019-05-26T08:48:59.649Z,95199.16
2019-05-26T08:51:27.044Z,95196.38
2019-05-26T08:53:54.489Z,95205.95
2019-05-26T08:56:21.999Z,95204.14
2019-05-26T08:58:49.439Z,95199.90
2019-05-26T09:01:16.889Z,95198.38
2019-05-26T09:03:44.301Z,95197.28
2019-05-26T09:06:11.742Z,95188.81
2019-05-26T09:08:39.144Z,95199.06
2019-05-26T09:11:06.657Z,95181.51
2019-05-26T09:13:34.026Z,95187.23
2019-05-26T09:16:01.534Z,95189.03
2019-05-26T09:18:29.013Z,95203.66
2019-05-26T09:20:56.370Z,95194.17
2019-05-26T09:23:23.797Z,95194.73
2019-05-26T09:25:51.284Z,95193.05
2019-05-26T09:28:18.768Z,95192.17
2019-05-26T09:30:46.302Z,95188.81
2019-05-26T09:33:13.788Z,95186.97
2019-05-26T09:35:41.237Z,95191.52
2019-05-26T09:38:08.800Z,95193.69
2019-05-26T09:40:36.231Z,95182.16
2019-05-26T09:43:15.769Z,95182.16
2019-05-26T09:45:33.062Z,95185.26
2019-05-26T09:48:00.503Z,95182.39
2019-05-26T09:50:27.887Z,95172.48
2019-05-26T09:52:55.411Z,95176.34
2019-05-26T09:55:22.952Z,95165.58
2019-05-26T09:57:50.331Z,95166.64
2019-05-26T10:00:19.087Z,95158.98
2019-05-26T10:02:46.535Z,95162.58
2019-05-26T10:05:14.291Z,95144.48
2019-05-26T10:07:41.751Z,95157.45
2019-05-26T10:10:11.843Z,95159.38
2019-05-26T10:12:39.313Z,95156.07
2019-05-26T10:15:07.874Z,95153.64
2019-05-26T10:17:35.293Z,95153.76
2019-05-26T10:20:03.265Z,95154.84
2019-05-26T10:22:30.708Z,95146.41
2019-05-26T10:24:58.166Z,95135.53
2019-05-26T10:27:25.593Z,95142.34
2019-05-26T10:29:52.973Z,95138.89
2019-05-26T10:32:20.450Z,95146.60
2019-05-26T10:34:47.901Z,95151.22
2019-05-26T10:37:15.876Z,95151.22
2019-05-26T10:39:45.150Z,95139.89
2019-05-26T10:42:12.797Z,95139.06
2019-05-26T10:44:40.280Z,95137.41
2019-05-26T10:47:07.762Z,95140.69
2019-05-26T10:49:35.234Z,95134.22
2019-05-26T10:52:02.653Z,95135.90
2019-05-26T10:54:30.123Z,95130.94
2019-05-26T10:56:57.610Z,95129.59
2019-05-26T10:59:25.018Z,95127.34
2019-05-26T11:01:52.525Z,95129.59
2019-05-26T11:04:20.006Z,95125.72
2019-05-26T11:06:47.515Z,95130.97
2019-05-26T11:09:14.914Z,95127.39
2019-05-26T11:11:42.369Z,95128.00
2019-05-26T11:14:09.823Z,95125.94
2019-05-26T11:16:37.322Z,95112.75
2019-05-26T11:19:04.943Z,95114.09
2019-05-26T11:21:32.346Z,95111.48
2019-05-26T11:23:59.798Z,95114.14
2019-05-26T11:26:27.253Z,95114.61
2019-05-26T11:28:54.767Z,95107.67
2019-05-26T11:31:22.758Z,95099.95
2019-05-26T11:33:50.230Z,95108.34
2019-05-26T11:36:17.668Z,95103.13
2019-05-26T11:38:45.157Z,95105.26
2019-05-26T11:41:12.744Z,95097.84
2019-05-26T11:43:40.266Z,95098.12
2019-05-26T11:46:07.680Z,95101.01
2019-05-26T11:48:38.826Z,95104.09
2019-05-26T11:51:04.868Z,95096.92
2019-05-26T11:53:32.253Z,95101.63
2019-05-26T11:55:59.710Z,95094.46
2019-05-26T11:58:27.145Z,95088.81
2019-05-26T12:00:54.595Z,95095.76
2019-05-26T12:03:22.067Z,95095.76
2019-05-26T12:05:49.505Z,95091.39
2019-05-26T12:08:16.892Z,95086.86
2019-05-26T12:10:44.385Z,95087.30
2019-05-26T12:13:11.871Z,95090.11
2019-05-26T12:15:39.399Z,95091.69
2019-05-26T12:18:06.823Z,95088.59
2019-05-26T12:20:34.285Z,95088.11
2019-05-26T12:23:01.909Z,95083.21
2019-05-26T12:25:29.583Z,95080.85
2019-05-26T12:27:58.787Z,95072.47
2019-05-26T12:30:26.449Z,95083.49
2019-05-26T12:32:53.929Z,95069.06
2019-05-26T12:35:23.362Z,95073.70
2019-05-26T12:37:50.812Z,95072.95
2019-05-26T12:40:19.225Z,95072.40
2019-05-26T12:42:47.001Z,95058.70
2019-05-26T12:45:15.245Z,95064.11
2019-05-26T12:47:42.665Z,95050.37
2019-05-26T12:50:11.906Z,95054.11
2019-05-26T12:52:39.378Z,95052.94
2019-05-26T12:55:09.304Z,95062.39
2019-05-26T12:57:36.909Z,95056.09
2019-05-26T13:00:04.843Z,95057.33
2019-05-26T13:02:32.280Z,95053.25
2019-05-26T13:04:59.675Z,95046.78
2019-05-26T13:07:27.204Z,95037.50
2019-05-26T13:09:54.671Z,95041.94
2019-05-26T13:12:22.134Z,95045.13
2019-05-26T13:15:04.763Z,95039.98
2019-05-26T13:17:18.943Z,95036.28
2019-05-26T13:19:46.386Z,95034.22
2019-05-26T13:22:13.806Z,95035.73
2019-05-26T13:24:41.231Z,95033.42
2019-05-26T13:27:08.661Z,95024.12
2019-05-26T13:29:36.122Z,95024.73
2019-05-26T13:32:03.849Z,95030.16
2019-05-26T13:34:31.371Z,95024.85
2019-05-26T13:36:58.917Z,95026.44
2019-05-26T13:39:26.457Z,95025.19
2019-05-26T13:41:53.896Z,95020.30
2019-05-26T13:44:21.350Z,95031.58
2019-05-26T13:46:48.715Z,95030.13
2019-05-26T13:49:16.210Z,95022.58
2019-05-26T13:51:43.670Z,95027.01
2019-05-26T13:54:11.199Z,95025.95
2019-05-26T13:56:38.893Z,95019.05
2019-05-26T13:59:06.336Z,95022.77
2019-05-26T14:01:33.817Z,95022.06
2019-05-26T14:04:01.275Z,95020.86
2019-05-26T14:06:28.652Z,95015.18
2019-05-26T14:08:56.141Z,95012.17
2019-05-26T14:11:23.635Z,95012.66
2019-05-26T14:13:51.043Z,95017.73
2019-05-26T14:16:21.101Z,95014.20
2019-05-26T14:18:50.899Z,95014.98
2019-05-26T14:21:18.298Z,95016.41
2019-05-26T14:23:45.795Z,95018.08
2019-05-26T14:26:13.261Z,95009.06
2019-05-26T14:28:40.704Z,95010.80
2019-05-26T14:31:08.284Z,95013.83
2019-05-26T14:33:36.007Z,95010.42
2019-05-26T14:36:03.620Z,95011.11
2019-05-26T14:38:42.684Z,95013.58
2019-05-26T14:41:00.533Z,95015.11
2019-05-26T14:43:28.001Z,95017.40
2019-05-26T14:45:55.414Z,95016.61
2019-05-26T14:48:22.916Z,95013.52
2019-05-26T14:50:50.412Z,95016.11
2019-05-26T14:53:17.893Z,95018.79
2019-05-26T14:55:45.352Z,95013.61
2019-05-26T14:58:16.270Z,95008.80
2019-05-26T15:00:42.095Z,95005.00
2019-05-26T15:03:09.566Z,95003.95
2019-05-26T15:05:36.990Z,94997.56
2019-05-26T15:08:04.437Z,94993.42
2019-05-26T15:10:32.038Z,94997.28
2019-05-26T15:12:59.593Z,94999.08
2019-05-26T15:15:26.999Z,95004.55
2019-05-26T15:17:54.429Z,95004.47
2019-05-26T15:20:21.870Z,95007.72
2019-05-26T15:22:49.584Z,95007.70
2019-05-26T15:25:17.139Z,95000.66
2019-05-26T15:27:46.507Z,95009.64
2019-05-26T15:30:15.954Z,95001.14
2019-05-26T15:32:43.329Z,95002.23
2019-05-26T15:35:11.302Z,95002.41
2019-05-26T15:37:38.832Z,94996.69
2019-05-26T15:40:06.794Z,95002.13
2019-05-26T15:42:34.278Z,95006.86
2019-05-26T15:45:01.907Z,95001.03
2019-05-26T15:47:29.444Z,94992.19
2019-05-26T15:49:56.992Z,95010.50
2019-05-26T15:52:24.441Z,95010.50
2019-05-26T15:54:51.848Z,95000.09
2019-05-26T15:57:19.492Z,95000.48
2019-05-26T15:59:47.018Z,95005.11
2019-05-26T16:02:14.454Z,95003.44
2019-05-26T16:04:45.334Z,95005.48
2019-05-26T16:07:11.371Z,95008.05
2019-05-26T16:09:38.886Z,95010.38
2019-05-26T16:12:06.333Z,95017.00
2019-05-26T16:14:33.858Z,95010.77
2019-05-26T16:17:01.370Z,94983.80
2019-05-26T16:19:28.746Z,95015.66
2019-05-26T16:21:56.211Z,95022.20
2019-05-26T16:24:23.671Z,95014.08
2019-05-26T16:26:51.086Z,95015.02
2019-05-26T16:29:18.525Z,95025.84
2019-05-26T16:31:46.153Z,95024.16
2019-05-26T16:34:13.607Z,95022.31
2019-05-26T16:36:41.210Z,95027.88
2019-05-26T16:39:08.730Z,95026.56
2019-05-26T16:41:36.145Z,95030.81
2019-05-26T16:44:03.813Z,95030.11
2019-05-26T16:46:31.390Z,95032.05
2019-05-26T16:48:58.982Z,95037.59
2019-05-26T16:51:26.536Z,95034.66
2019-05-26T16:53:54.032Z,95038.32
2019-05-26T16:56:21.453Z,95032.13
2019-05-26T16:58:48.932Z,95041.58
2019-05-26T17:01:16.374Z,95037.11
2019-05-26T17:03:43.936Z,95025.19
2019-05-26T17:06:11.818Z,95040.54
2019-05-26T17:08:39.302Z,95030.37
2019-05-26T17:11:06.780Z,95048.13
2019-05-26T17:13:34.274Z,95049.63
2019-05-26T17:16:01.877Z,95046.46
2019-05-26T17:18:29.383Z,95049.80
2019-05-26T17:20:56.850Z,95050.83
2019-05-26T17:23:24.285Z,95055.27
2019-05-26T17:25:51.874Z,95054.63
2019-05-26T17:28:19.332Z,95054.34
2019-05-26T17:30:46.970Z,95055.27
2019-05-26T17:33:14.445Z,95052.84
2019-05-26T17:35:41.948Z,95060.41
2019-05-26T17:38:09.527Z,95059.27
2019-05-26T17:40:36.983Z,95055.50
2019-05-26T17:43:04.374Z,95056.00
2019-05-26T17:45:31.800Z,95054.99
2019-05-26T17:47:59.268Z,95051.77
2019-05-26T17:50:26.685Z,95051.77
2019-05-26T17:52:54.661Z,95057.08
2019-05-26T17:55:22.149Z,95061.39
2019-05-26T17:57:49.577Z,95052.06
2019-05-26T18:00:17.073Z,95053.55
2019-05-26T18:02:44.614Z,95065.38
2019-05-26T18:05:12.376Z,95058.19
2019-05-26T18:07:39.911Z,95054.96
2019-05-26T18:10:08.066Z,95058.95
2019-05-26T18:12:35.513Z,95058.12
2019-05-26T18:15:03.593Z,95058.81
2019-05-26T18:17:45.880Z,95064.25
2019-05-26T18:20:00.544Z,95074.42
2019-05-26T18:22:28.062Z,95073.27
2019-05-26T18:24:58.328Z,95079.57
2019-05-26T18:27:24.883Z,95083.90
2019-05-26T18:29:52.441Z,95089.43
2019-05-26T18:32:20.022Z,95092.81
2019-05-26T18:34:47.650Z,95103.53
2019-05-26T18:37:15.058Z,95107.82
2019-05-26T18:39:42.616Z,95103.17
2019-05-26T18:42:10.026Z,95105.05
2019-05-26T18:44:37.465Z,95111.03
2019-05-26T18:47:04.924Z,95108.03
2019-05-26T18:49:32.388Z,95111.61
2019-05-26T18:52:00.085Z,95107.90
2019-05-26T18:54:27.558Z,95103.84
2019-05-26T18:56:54.990Z,95110.13
2019-05-26T18:59:22.394Z,95112.94
2019-05-26T19:01:49.884Z,95110.45
2019-05-26T19:04:17.425Z,95108.67
2019-05-26T19:06:44.797Z,95119.77
2019-05-26T19:09:12.317Z,95119.26
2019-05-26T19:11:39.769Z,95129.49
2019-05-26T19:14:07.274Z,95124.63
2019-05-26T19:16:34.821Z,95129.51
2019-05-26T19:19:02.304Z,95126.11
2019-05-26T19:21:29.701Z,95127.83
2019-05-26T19:23:57.614Z,95127.50
2019-05-26T19:26:25.047Z,95136.88
2019-05-26T19:28:52.439Z,95147.38
2019-05-26T19:31:19.913Z,95152.17
2019-05-26T19:33:47.479Z,95163.50
2019-05-26T19:36:14.938Z,95164.80
2019-05-26T19:38:42.431Z,95155.30
2019-05-26T19:41:09.913Z,95156.27
2019-05-26T19:43:37.400Z,95155.19
2019-05-26T19:46:04.871Z,95158.55
2019-05-26T19:48:36.618Z,95158.05
2019-05-26T19:51:01.719Z,95165.63
2019-05-26T19:53:29.177Z,95159.77
2019-05-26T19:55:56.588Z,95152.19
2019-05-26T19:58:24.170Z,95152.77
2019-05-26T20:00:51.631Z,95167.70
2019-05-26T20:03:19.016Z,95147.30
2019-05-26T20:05:46.458Z,95137.02
2019-05-26T20:08:14.046Z,95139.33
2019-05-26T20:10:41.686Z,95133.73
2019-05-26T20:13:09.105Z,95130.34
2019-05-26T20:15:36.674Z,95119.66
2019-05-26T20:18:04.518Z,95119.17
2019-05-26T20:20:32.046Z,95119.23
2019-05-26T20:22:59.412Z,95130.19
2019-05-26T20:25:26.856Z,95117.62
2019-05-26T20:27:54.287Z,95122.72
2019-05-26T20:30:23.482Z,95125.09
2019-05-26T20:32:51.210Z,95121.31
2019-05-26T20:35:18.882Z,95119.98
2019-05-26T20:37:46.322Z,95115.78
2019-05-26T20:40:14.382Z,95129.49
2019-05-26T20:42:41.763Z,95123.95
2019-05-26T20:45:09.412Z,95127.18
2019-05-26T20:47:36.860Z,95139.00
2019-05-26T20:50:04.564Z,95141.02
2019-05-26T20:52:31.996Z,95149.62
2019-05-26T20:54:59.623Z,95146.52
2019-05-26T20:57:27.011Z,95154.95
2019-05-26T20:59:54.511Z,95155.78
2019-05-26T21:02:22.010Z,95153.13
2019-05-26T21:04:49.391Z,95159.17
2019-05-26T21:07:16.840Z,95160.44
2019-05-26T21:09:44.679Z,95161.41
2019-05-26T21:12:12.057Z,95153.30
2019-05-26T21:14:39.485Z,95157.04
2019-05-26T21:17:06.948Z,95152.73
2019-05-26T21:19:34.383Z,95160.16
2019-05-26T21:22:01.795Z,95159.55
2019-05-26T21:24:29.228Z,95154.66
2019-05-26T21:26:56.654Z,95156.50
2019-05-26T21:29:24.039Z,95146.48
2019-05-26T21:31:51.464Z,95142.36
2019-05-26T21:34:19.257Z,95138.74
2019-05-26T21:36:46.746Z,95143.79
2019-05-26T21:39:14.210Z,95144.80
2019-05-26T21:41:41.665Z,95148.36
2019-05-26T21:44:09.076Z,95152.31
2019-05-26T21:46:36.531Z,95150.30
2019-05-26T21:49:04.161Z,95142.39
2019-05-26T21:51:31.568Z,95138.96
2019-05-26T21:53:58.913Z,95142.31
2019-05-26T21:56:26.363Z,95141.38
2019-05-26T21:58:53.777Z,95125.81
2019-05-26T22:01:21.201Z,95124.60
2019-05-26T22:03:48.585Z,95126.50
2019-05-26T22:06:19.746Z,95132.04
2019-05-26T22:08:45.409Z,95132.31
2019-05-26T22:11:12.835Z,95141.77
2019-05-26T22:13:40.312Z,95144.50
2019-05-26T22:16:07.790Z,95140.20
2019-05-26T22:18:35.173Z,95132.98
2019-05-26T22:21:02.598Z,95137.77
2019-05-26T22:23:30.028Z,95133.02
2019-05-26T22:25:57.403Z,95132.52
2019-05-26T22:28:24.842Z,95137.39
2019-05-26T22:30:52.248Z,95134.55
2019-05-26T22:33:19.835Z,95138.42
2019-05-26T22:35:47.386Z,95139.42
2019-05-26T22:38:14.882Z,95133.56
2019-05-26T22:40:42.271Z,95139.32
2019-05-26T22:43:09.776Z,95138.68
2019-05-26T22:45:37.204Z,95138.07
2019-05-26T22:48:04.582Z,95130.72
2019-05-26T22:50:32.002Z,95123.60
2019-05-26T22:52:59.434Z,95123.11
2019-05-26T22:55:26.788Z,95111.13
2019-05-26T22:57:54.206Z,95117.13
2019-05-26T23:00:24.044Z,95111.03
2019-05-26T23:02:51.483Z,95114.13
2019-05-26T23:05:18.875Z,95116.63
2019-05-26T23:07:46.381Z,95117.38
2019-05-26T23:10:14.111Z,95121.63
2019-05-26T23:12:41.549Z,95127.00
2019-05-26T23:15:10.804Z,95127.23
2019-05-26T23:17:38.320Z,95140.83
2019-05-26T23:20:06.442Z,95144.17
2019-05-26T23:22:33.851Z,95137.68
2019-05-26T23:25:01.314Z,95138.56
2019-05-26T23:27:28.773Z,95129.95
2019-05-26T23:29:56.262Z,95127.11
2019-05-26T23:32:23.693Z,95129.09
2019-05-26T23:34:51.161Z,95128.34
2019-05-26T23:37:18.649Z,95122.13
2019-05-26T23:39:46.168Z,95126.35
2019-05-26T23:42:13.639Z,95117.88
2019-05-26T23:44:41.008Z,95116.66
2019-05-26T23:47:08.447Z,95119.25
2019-05-26T23:49:35.866Z,95116.15
2019-05-26T23:52:03.348Z,95132.84
2019-05-26T23:54:30.799Z,95123.13
2019-05-26T23:56:58.252Z,95116.26
2019-05-26T23:59:25.680Z,95120.12
